sensor_id;sensor_type;location;lat;lon;timestamp;P1;durP1;ratioP1;P2;durP2;ratioP2
20399;SDS011;10359;53.596;22.520;2023-06-26T00:00:59;5.07;;;4.20;;
20399;SDS011;10359;53.596;22.520;2023-06-26T00:03:29;5.97;;;4.60;;
20399;SDS011;10359;53.596;22.520;2023-06-26T00:05:59;4.97;;;4.17;;
20399;SDS011;10359;53.596;22.520;2023-06-26T00:08:28;5.67;;;4.20;;
20399;SDS011;10359;53.596;22.520;2023-06-26T00:11:00;5.10;;;4.53;;
20399;SDS011;10359;53.596;22.520;2023-06-26T00:13:30;5.47;;;4.30;;
20399;SDS011;10359;53.596;22.520;2023-06-26T00:16:01;5.07;;;4.27;;
20399;SDS011;10359;53.596;22.520;2023-06-26T00:18:31;5.53;;;4.27;;
20399;SDS011;10359;53.596;22.520;2023-06-26T00:21:00;4.73;;;4.27;;
20399;SDS011;10359;53.596;22.520;2023-06-26T00:23:30;4.63;;;4.20;;
20399;SDS011;10359;53.596;22.520;2023-06-26T00:25:59;4.73;;;4.23;;
20399;SDS011;10359;53.596;22.520;2023-06-26T00:28:29;7.37;;;4.73;;
20399;SDS011;10359;53.596;22.520;2023-06-26T00:31:01;4.63;;;4.00;;
20399;SDS011;10359;53.596;22.520;2023-06-26T00:33:30;4.97;;;4.00;;
20399;SDS011;10359;53.596;22.520;2023-06-26T00:36:00;5.10;;;4.60;;
20399;SDS011;10359;53.596;22.520;2023-06-26T00:38:30;6.40;;;4.77;;
20399;SDS011;10359;53.596;22.520;2023-06-26T00:41:00;6.90;;;4.77;;
20399;SDS011;10359;53.596;22.520;2023-06-26T00:43:33;5.60;;;5.10;;
20399;SDS011;10359;53.596;22.520;2023-06-26T00:46:08;5.17;;;4.67;;
20399;SDS011;10359;53.596;22.520;2023-06-26T00:48:39;6.63;;;5.20;;
20399;SDS011;10359;53.596;22.520;2023-06-26T00:51:13;6.07;;;5.40;;
20399;SDS011;10359;53.596;22.520;2023-06-26T00:53:43;5.00;;;4.57;;
20399;SDS011;10359;53.596;22.520;2023-06-26T00:56:15;5.83;;;5.10;;
20399;SDS011;10359;53.596;22.520;2023-06-26T00:58:46;7.70;;;5.07;;
20399;SDS011;10359;53.596;22.520;2023-06-26T01:01:17;7.40;;;5.73;;
20399;SDS011;10359;53.596;22.520;2023-06-26T01:03:49;9.43;;;5.33;;
20399;SDS011;10359;53.596;22.520;2023-06-26T01:06:20;9.30;;;5.80;;
20399;SDS011;10359;53.596;22.520;2023-06-26T01:08:52;6.80;;;5.20;;
20399;SDS011;10359;53.596;22.520;2023-06-26T01:11:23;5.50;;;4.80;;
20399;SDS011;10359;53.596;22.520;2023-06-26T01:13:52;5.80;;;4.90;;
20399;SDS011;10359;53.596;22.520;2023-06-26T01:16:24;6.17;;;5.17;;
20399;SDS011;10359;53.596;22.520;2023-06-26T01:18:56;6.37;;;4.83;;
20399;SDS011;10359;53.596;22.520;2023-06-26T01:21:26;9.03;;;5.23;;
20399;SDS011;10359;53.596;22.520;2023-06-26T01:24:02;6.00;;;5.30;;
20399;SDS011;10359;53.596;22.520;2023-06-26T01:26:37;7.40;;;5.60;;
20399;SDS011;10359;53.596;22.520;2023-06-26T01:29:10;5.80;;;5.20;;
20399;SDS011;10359;53.596;22.520;2023-06-26T01:31:41;6.00;;;4.70;;
20399;SDS011;10359;53.596;22.520;2023-06-26T01:34:13;6.80;;;5.27;;
20399;SDS011;10359;53.596;22.520;2023-06-26T01:39:17;8.37;;;6.20;;
20399;SDS011;10359;53.596;22.520;2023-06-26T01:41:48;5.60;;;5.10;;
20399;SDS011;10359;53.596;22.520;2023-06-26T01:44:21;6.00;;;5.33;;
20399;SDS011;10359;53.596;22.520;2023-06-26T01:46:59;5.40;;;4.77;;
20399;SDS011;10359;53.596;22.520;2023-06-26T01:49:40;7.67;;;5.43;;
20399;SDS011;10359;53.596;22.520;2023-06-26T01:52:25;5.80;;;5.30;;
20399;SDS011;10359;53.596;22.520;2023-06-26T01:55:02;11.20;;;8.57;;
20399;SDS011;10359;53.596;22.520;2023-06-26T01:57:37;7.53;;;5.50;;
20399;SDS011;10359;53.596;22.520;2023-06-26T02:00:08;6.57;;;5.67;;
20399;SDS011;10359;53.596;22.520;2023-06-26T02:02:40;8.87;;;6.13;;
20399;SDS011;10359;53.596;22.520;2023-06-26T02:05:12;9.23;;;6.67;;
20399;SDS011;10359;53.596;22.520;2023-06-26T02:07:42;7.50;;;5.27;;
20399;SDS011;10359;53.596;22.520;2023-06-26T02:10:12;8.10;;;6.13;;
20399;SDS011;10359;53.596;22.520;2023-06-26T02:12:43;6.30;;;5.70;;
20399;SDS011;10359;53.596;22.520;2023-06-26T02:15:13;6.33;;;5.70;;
20399;SDS011;10359;53.596;22.520;2023-06-26T02:17:42;7.20;;;5.87;;
20399;SDS011;10359;53.596;22.520;2023-06-26T02:20:15;6.67;;;5.60;;
20399;SDS011;10359;53.596;22.520;2023-06-26T02:22:45;6.10;;;5.50;;
20399;SDS011;10359;53.596;22.520;2023-06-26T02:25:14;6.50;;;5.80;;
20399;SDS011;10359;53.596;22.520;2023-06-26T02:27:46;6.73;;;5.87;;
20399;SDS011;10359;53.596;22.520;2023-06-26T02:30:15;8.07;;;6.70;;
20399;SDS011;10359;53.596;22.520;2023-06-26T02:32:45;9.10;;;6.37;;
20399;SDS011;10359;53.596;22.520;2023-06-26T02:35:15;8.17;;;7.23;;
20399;SDS011;10359;53.596;22.520;2023-06-26T02:37:44;7.17;;;6.43;;
20399;SDS011;10359;53.596;22.520;2023-06-26T02:40:14;7.60;;;6.70;;
20399;SDS011;10359;53.596;22.520;2023-06-26T02:42:43;7.20;;;6.50;;
20399;SDS011;10359;53.596;22.520;2023-06-26T02:45:14;8.07;;;6.97;;
20399;SDS011;10359;53.596;22.520;2023-06-26T02:47:43;7.17;;;6.47;;
20399;SDS011;10359;53.596;22.520;2023-06-26T02:50:14;7.90;;;6.83;;
20399;SDS011;10359;53.596;22.520;2023-06-26T02:52:46;7.30;;;6.43;;
20399;SDS011;10359;53.596;22.520;2023-06-26T02:55:21;7.60;;;6.53;;
20399;SDS011;10359;53.596;22.520;2023-06-26T02:57:52;8.10;;;6.40;;
20399;SDS011;10359;53.596;22.520;2023-06-26T03:00:22;6.83;;;6.20;;
20399;SDS011;10359;53.596;22.520;2023-06-26T03:02:52;7.53;;;6.33;;
20399;SDS011;10359;53.596;22.520;2023-06-26T03:05:24;6.23;;;5.63;;
20399;SDS011;10359;53.596;22.520;2023-06-26T03:07:56;7.03;;;6.00;;
20399;SDS011;10359;53.596;22.520;2023-06-26T03:10:25;6.87;;;6.17;;
20399;SDS011;10359;53.596;22.520;2023-06-26T03:13:02;7.50;;;6.10;;
20399;SDS011;10359;53.596;22.520;2023-06-26T03:15:31;7.87;;;5.90;;
20399;SDS011;10359;53.596;22.520;2023-06-26T03:18:02;6.67;;;6.03;;
20399;SDS011;10359;53.596;22.520;2023-06-26T03:20:34;6.83;;;5.63;;
20399;SDS011;10359;53.596;22.520;2023-06-26T03:23:11;7.83;;;5.60;;
20399;SDS011;10359;53.596;22.520;2023-06-26T03:25:40;7.17;;;6.03;;
20399;SDS011;10359;53.596;22.520;2023-06-26T03:28:11;8.30;;;5.70;;
20399;SDS011;10359;53.596;22.520;2023-06-26T03:30:41;7.53;;;6.27;;
20399;SDS011;10359;53.596;22.520;2023-06-26T03:33:12;7.33;;;6.63;;
20399;SDS011;10359;53.596;22.520;2023-06-26T03:35:43;7.57;;;6.20;;
20399;SDS011;10359;53.596;22.520;2023-06-26T03:38:13;10.30;;;7.87;;
20399;SDS011;10359;53.596;22.520;2023-06-26T03:40:42;7.57;;;6.50;;
20399;SDS011;10359;53.596;22.520;2023-06-26T03:43:13;7.77;;;6.50;;
20399;SDS011;10359;53.596;22.520;2023-06-26T03:45:43;8.90;;;6.43;;
20399;SDS011;10359;53.596;22.520;2023-06-26T03:48:13;8.30;;;6.27;;
20399;SDS011;10359;53.596;22.520;2023-06-26T03:50:44;6.97;;;5.07;;
20399;SDS011;10359;53.596;22.520;2023-06-26T03:53:14;6.10;;;5.40;;
20399;SDS011;10359;53.596;22.520;2023-06-26T03:55:44;7.77;;;5.43;;
20399;SDS011;10359;53.596;22.520;2023-06-26T03:58:15;6.13;;;5.17;;
20399;SDS011;10359;53.596;22.520;2023-06-26T04:00:46;5.73;;;5.23;;
20399;SDS011;10359;53.596;22.520;2023-06-26T04:03:16;6.63;;;5.03;;
20399;SDS011;10359;53.596;22.520;2023-06-26T04:05:46;8.43;;;5.00;;
20399;SDS011;10359;53.596;22.520;2023-06-26T04:08:16;7.03;;;5.20;;
20399;SDS011;10359;53.596;22.520;2023-06-26T04:10:49;5.33;;;4.80;;
20399;SDS011;10359;53.596;22.520;2023-06-26T04:13:23;5.60;;;5.10;;
20399;SDS011;10359;53.596;22.520;2023-06-26T04:15:53;5.70;;;5.17;;
20399;SDS011;10359;53.596;22.520;2023-06-26T04:18:22;7.20;;;5.40;;
20399;SDS011;10359;53.596;22.520;2023-06-26T04:21:08;6.23;;;5.63;;
20399;SDS011;10359;53.596;22.520;2023-06-26T04:23:42;5.40;;;4.67;;
20399;SDS011;10359;53.596;22.520;2023-06-26T04:26:13;5.63;;;4.90;;
20399;SDS011;10359;53.596;22.520;2023-06-26T04:28:43;5.27;;;4.80;;
20399;SDS011;10359;53.596;22.520;2023-06-26T04:31:13;7.20;;;6.03;;
20399;SDS011;10359;53.596;22.520;2023-06-26T04:33:43;5.03;;;4.63;;
20399;SDS011;10359;53.596;22.520;2023-06-26T04:36:12;9.40;;;5.37;;
20399;SDS011;10359;53.596;22.520;2023-06-26T04:38:42;6.63;;;4.87;;
20399;SDS011;10359;53.596;22.520;2023-06-26T04:41:17;6.17;;;5.57;;
20399;SDS011;10359;53.596;22.520;2023-06-26T04:43:48;6.17;;;5.57;;
20399;SDS011;10359;53.596;22.520;2023-06-26T04:46:17;6.47;;;5.30;;
20399;SDS011;10359;53.596;22.520;2023-06-26T04:48:47;5.93;;;5.13;;
20399;SDS011;10359;53.596;22.520;2023-06-26T04:51:16;5.43;;;4.93;;
20399;SDS011;10359;53.596;22.520;2023-06-26T04:53:48;5.43;;;4.93;;
20399;SDS011;10359;53.596;22.520;2023-06-26T04:56:18;5.97;;;5.00;;
20399;SDS011;10359;53.596;22.520;2023-06-26T04:58:49;5.47;;;4.93;;
20399;SDS011;10359;53.596;22.520;2023-06-26T05:01:19;6.07;;;4.73;;
20399;SDS011;10359;53.596;22.520;2023-06-26T05:03:50;5.27;;;4.27;;
20399;SDS011;10359;53.596;22.520;2023-06-26T05:06:21;7.27;;;4.83;;
20399;SDS011;10359;53.596;22.520;2023-06-26T05:08:52;6.47;;;4.40;;
20399;SDS011;10359;53.596;22.520;2023-06-26T05:11:24;7.17;;;4.80;;
20399;SDS011;10359;53.596;22.520;2023-06-26T05:14:01;4.87;;;4.37;;
20399;SDS011;10359;53.596;22.520;2023-06-26T05:16:31;5.43;;;4.30;;
20399;SDS011;10359;53.596;22.520;2023-06-26T05:19:03;5.43;;;4.60;;
20399;SDS011;10359;53.596;22.520;2023-06-26T05:21:34;5.27;;;4.33;;
20399;SDS011;10359;53.596;22.520;2023-06-26T05:24:06;6.20;;;4.43;;
20399;SDS011;10359;53.596;22.520;2023-06-26T05:26:38;5.00;;;4.50;;
20399;SDS011;10359;53.596;22.520;2023-06-26T05:29:10;4.83;;;4.40;;
20399;SDS011;10359;53.596;22.520;2023-06-26T05:31:41;6.60;;;4.63;;
20399;SDS011;10359;53.596;22.520;2023-06-26T05:34:13;6.17;;;4.83;;
20399;SDS011;10359;53.596;22.520;2023-06-26T05:36:43;5.80;;;5.03;;
20399;SDS011;10359;53.596;22.520;2023-06-26T05:39:13;5.17;;;4.30;;
20399;SDS011;10359;53.596;22.520;2023-06-26T05:41:46;6.40;;;4.30;;
20399;SDS011;10359;53.596;22.520;2023-06-26T05:44:20;5.83;;;4.50;;
20399;SDS011;10359;53.596;22.520;2023-06-26T05:46:52;5.37;;;4.33;;
20399;SDS011;10359;53.596;22.520;2023-06-26T05:49:25;4.20;;;3.80;;
20399;SDS011;10359;53.596;22.520;2023-06-26T05:52:00;6.50;;;4.37;;
20399;SDS011;10359;53.596;22.520;2023-06-26T05:54:33;4.87;;;3.90;;
20399;SDS011;10359;53.596;22.520;2023-06-26T05:57:06;5.50;;;3.27;;
20399;SDS011;10359;53.596;22.520;2023-06-26T05:59:39;4.77;;;3.93;;
20399;SDS011;10359;53.596;22.520;2023-06-26T06:02:12;7.17;;;4.13;;
20399;SDS011;10359;53.596;22.520;2023-06-26T06:04:42;4.80;;;4.13;;
20399;SDS011;10359;53.596;22.520;2023-06-26T06:07:11;4.60;;;4.20;;
20399;SDS011;10359;53.596;22.520;2023-06-26T06:09:43;4.20;;;3.70;;
20399;SDS011;10359;53.596;22.520;2023-06-26T06:12:14;4.90;;;4.23;;
20399;SDS011;10359;53.596;22.520;2023-06-26T06:14:47;5.90;;;3.47;;
20399;SDS011;10359;53.596;22.520;2023-06-26T06:17:22;4.33;;;3.50;;
20399;SDS011;10359;53.596;22.520;2023-06-26T06:19:52;4.03;;;3.63;;
20399;SDS011;10359;53.596;22.520;2023-06-26T06:22:23;3.43;;;3.13;;
20399;SDS011;10359;53.596;22.520;2023-06-26T06:24:53;3.53;;;3.23;;
20399;SDS011;10359;53.596;22.520;2023-06-26T06:27:23;6.93;;;3.60;;
20399;SDS011;10359;53.596;22.520;2023-06-26T06:29:54;3.60;;;3.30;;
20399;SDS011;10359;53.596;22.520;2023-06-26T06:32:24;4.13;;;2.80;;
20399;SDS011;10359;53.596;22.520;2023-06-26T06:34:59;3.20;;;2.90;;
20399;SDS011;10359;53.596;22.520;2023-06-26T06:37:36;3.07;;;2.87;;
20399;SDS011;10359;53.596;22.520;2023-06-26T06:40:09;4.00;;;3.30;;
20399;SDS011;10359;53.596;22.520;2023-06-26T06:42:39;3.27;;;2.97;;
20399;SDS011;10359;53.596;22.520;2023-06-26T06:45:12;3.83;;;3.30;;
20399;SDS011;10359;53.596;22.520;2023-06-26T06:47:43;3.80;;;3.00;;
20399;SDS011;10359;53.596;22.520;2023-06-26T06:50:14;4.00;;;3.17;;
20399;SDS011;10359;53.596;22.520;2023-06-26T06:52:45;2.90;;;2.57;;
20399;SDS011;10359;53.596;22.520;2023-06-26T06:55:16;3.73;;;3.07;;
20399;SDS011;10359;53.596;22.520;2023-06-26T06:57:46;4.80;;;3.20;;
20399;SDS011;10359;53.596;22.520;2023-06-26T07:00:20;3.30;;;3.00;;
20399;SDS011;10359;53.596;22.520;2023-06-26T07:02:50;3.50;;;3.20;;
20399;SDS011;10359;53.596;22.520;2023-06-26T07:05:23;3.10;;;2.80;;
20399;SDS011;10359;53.596;22.520;2023-06-26T07:07:53;3.10;;;2.80;;
20399;SDS011;10359;53.596;22.520;2023-06-26T07:10:24;3.83;;;3.43;;
20399;SDS011;10359;53.596;22.520;2023-06-26T07:12:53;3.40;;;3.10;;
20399;SDS011;10359;53.596;22.520;2023-06-26T07:15:26;3.43;;;3.13;;
20399;SDS011;10359;53.596;22.520;2023-06-26T07:17:57;3.27;;;2.67;;
20399;SDS011;10359;53.596;22.520;2023-06-26T07:20:28;3.97;;;3.40;;
20399;SDS011;10359;53.596;22.520;2023-06-26T07:22:58;3.73;;;3.20;;
20399;SDS011;10359;53.596;22.520;2023-06-26T07:25:28;3.37;;;3.00;;
20399;SDS011;10359;53.596;22.520;2023-06-26T07:27:57;4.00;;;3.43;;
20399;SDS011;10359;53.596;22.520;2023-06-26T07:30:28;4.23;;;3.73;;
20399;SDS011;10359;53.596;22.520;2023-06-26T07:33:05;4.23;;;3.00;;
20399;SDS011;10359;53.596;22.520;2023-06-26T07:35:40;4.50;;;3.13;;
20399;SDS011;10359;53.596;22.520;2023-06-26T07:38:13;3.23;;;3.00;;
20399;SDS011;10359;53.596;22.520;2023-06-26T07:43:24;5.10;;;3.07;;
20399;SDS011;10359;53.596;22.520;2023-06-26T07:45:58;4.37;;;2.97;;
20399;SDS011;10359;53.596;22.520;2023-06-26T07:48:30;4.63;;;3.20;;
20399;SDS011;10359;53.596;22.520;2023-06-26T07:51:01;3.30;;;3.00;;
20399;SDS011;10359;53.596;22.520;2023-06-26T07:53:31;3.53;;;2.87;;
20399;SDS011;10359;53.596;22.520;2023-06-26T07:56:01;3.17;;;2.87;;
20399;SDS011;10359;53.596;22.520;2023-06-26T07:58:31;3.67;;;2.90;;
20399;SDS011;10359;53.596;22.520;2023-06-26T08:01:05;5.10;;;3.40;;
20399;SDS011;10359;53.596;22.520;2023-06-26T08:03:36;3.83;;;3.45;;
20399;SDS011;10359;53.596;22.520;2023-06-26T08:06:06;3.35;;;3.05;;
20399;SDS011;10359;53.596;22.520;2023-06-26T08:08:41;4.60;;;3.60;;
20399;SDS011;10359;53.596;22.520;2023-06-26T08:11:12;4.30;;;3.27;;
20399;SDS011;10359;53.596;22.520;2023-06-26T08:13:42;3.70;;;3.40;;
20399;SDS011;10359;53.596;22.520;2023-06-26T08:16:13;3.70;;;3.40;;
20399;SDS011;10359;53.596;22.520;2023-06-26T08:18:42;3.92;;;3.35;;
20399;SDS011;10359;53.596;22.520;2023-06-26T08:21:12;3.70;;;3.30;;
20399;SDS011;10359;53.596;22.520;2023-06-26T08:23:42;4.93;;;3.63;;
20399;SDS011;10359;53.596;22.520;2023-06-26T08:26:14;4.97;;;3.50;;
20399;SDS011;10359;53.596;22.520;2023-06-26T08:28:51;4.78;;;3.58;;
20399;SDS011;10359;53.596;22.520;2023-06-26T08:31:27;3.85;;;3.30;;
20399;SDS011;10359;53.596;22.520;2023-06-26T08:34:00;4.18;;;3.70;;
20399;SDS011;10359;53.596;22.520;2023-06-26T08:36:31;5.10;;;3.85;;
20399;SDS011;10359;53.596;22.520;2023-06-26T08:39:01;4.50;;;3.60;;
20399;SDS011;10359;53.596;22.520;2023-06-26T08:41:32;5.43;;;4.07;;
20399;SDS011;10359;53.596;22.520;2023-06-26T08:44:02;4.15;;;3.75;;
20399;SDS011;10359;53.596;22.520;2023-06-26T08:46:34;3.70;;;3.40;;
20399;SDS011;10359;53.596;22.520;2023-06-26T08:49:08;4.30;;;3.58;;
20399;SDS011;10359;53.596;22.520;2023-06-26T08:51:44;3.72;;;3.40;;
20399;SDS011;10359;53.596;22.520;2023-06-26T08:54:21;4.35;;;3.95;;
20399;SDS011;10359;53.596;22.520;2023-06-26T08:56:58;3.53;;;3.22;;
20399;SDS011;10359;53.596;22.520;2023-06-26T08:59:28;6.80;;;3.55;;
20399;SDS011;10359;53.596;22.520;2023-06-26T09:02:00;4.00;;;3.60;;
20399;SDS011;10359;53.596;22.520;2023-06-26T09:04:31;5.40;;;3.70;;
20399;SDS011;10359;53.596;22.520;2023-06-26T09:07:01;4.03;;;3.63;;
20399;SDS011;10359;53.596;22.520;2023-06-26T09:09:31;3.45;;;3.15;;
20399;SDS011;10359;53.596;22.520;2023-06-26T09:12:01;3.40;;;3.10;;
20399;SDS011;10359;53.596;22.520;2023-06-26T09:14:32;4.30;;;3.50;;
20399;SDS011;10359;53.596;22.520;2023-06-26T09:17:03;4.05;;;3.47;;
20399;SDS011;10359;53.596;22.520;2023-06-26T09:19:36;4.78;;;3.55;;
20399;SDS011;10359;53.596;22.520;2023-06-26T09:22:10;4.25;;;3.28;;
20399;SDS011;10359;53.596;22.520;2023-06-26T09:24:44;4.10;;;3.70;;
20399;SDS011;10359;53.596;22.520;2023-06-26T09:27:15;3.85;;;3.55;;
20399;SDS011;10359;53.596;22.520;2023-06-26T09:29:47;3.92;;;3.50;;
20399;SDS011;10359;53.596;22.520;2023-06-26T09:32:21;3.83;;;3.42;;
20399;SDS011;10359;53.596;22.520;2023-06-26T09:34:55;4.03;;;3.60;;
20399;SDS011;10359;53.596;22.520;2023-06-26T09:37:29;4.40;;;3.67;;
20399;SDS011;10359;53.596;22.520;2023-06-26T09:40:00;4.22;;;3.63;;
20399;SDS011;10359;53.596;22.520;2023-06-26T09:42:31;4.00;;;3.65;;
20399;SDS011;10359;53.596;22.520;2023-06-26T09:45:04;4.10;;;3.70;;
20399;SDS011;10359;53.596;22.520;2023-06-26T09:47:41;4.18;;;3.78;;
20399;SDS011;10359;53.596;22.520;2023-06-26T09:50:21;4.30;;;3.63;;
20399;SDS011;10359;53.596;22.520;2023-06-26T09:52:57;4.78;;;3.42;;
20399;SDS011;10359;53.596;22.520;2023-06-26T09:55:28;3.65;;;3.35;;
20399;SDS011;10359;53.596;22.520;2023-06-26T09:57:58;3.72;;;3.30;;
20399;SDS011;10359;53.596;22.520;2023-06-26T10:00:32;6.97;;;3.63;;
20399;SDS011;10359;53.596;22.520;2023-06-26T10:03:04;3.67;;;3.35;;
20399;SDS011;10359;53.596;22.520;2023-06-26T10:05:34;3.60;;;3.30;;
20399;SDS011;10359;53.596;22.520;2023-06-26T10:08:04;3.67;;;3.38;;
20399;SDS011;10359;53.596;22.520;2023-06-26T10:10:34;4.20;;;3.10;;
20399;SDS011;10359;53.596;22.520;2023-06-26T10:13:08;4.13;;;3.30;;
20399;SDS011;10359;53.596;22.520;2023-06-26T10:15:45;3.70;;;3.40;;
20399;SDS011;10359;53.596;22.520;2023-06-26T10:18:17;3.55;;;2.85;;
20399;SDS011;10359;53.596;22.520;2023-06-26T10:20:50;3.53;;;3.22;;
20399;SDS011;10359;53.596;22.520;2023-06-26T10:23:25;3.58;;;3.28;;
20399;SDS011;10359;53.596;22.520;2023-06-26T10:26:00;4.57;;;3.13;;
20399;SDS011;10359;53.596;22.520;2023-06-26T10:28:31;3.88;;;3.58;;
20399;SDS011;10359;53.596;22.520;2023-06-26T10:31:02;3.70;;;3.40;;
20399;SDS011;10359;53.596;22.520;2023-06-26T10:33:36;3.20;;;2.85;;
20399;SDS011;10359;53.596;22.520;2023-06-26T10:36:13;3.50;;;3.20;;
20399;SDS011;10359;53.596;22.520;2023-06-26T10:38:49;2.88;;;2.67;;
20399;SDS011;10359;53.596;22.520;2023-06-26T10:41:22;3.50;;;3.20;;
20399;SDS011;10359;53.596;22.520;2023-06-26T10:44:05;4.70;;;3.10;;
20399;SDS011;10359;53.596;22.520;2023-06-26T10:46:51;3.65;;;3.28;;
20399;SDS011;10359;53.596;22.520;2023-06-26T10:49:27;3.30;;;3.00;;
20399;SDS011;10359;53.596;22.520;2023-06-26T10:52:00;3.15;;;2.85;;
20399;SDS011;10359;53.596;22.520;2023-06-26T10:54:31;2.85;;;2.65;;
20399;SDS011;10359;53.596;22.520;2023-06-26T10:57:03;2.92;;;2.72;;
20399;SDS011;10359;53.596;22.520;2023-06-26T10:59:39;4.03;;;3.10;;
20399;SDS011;10359;53.596;22.520;2023-06-26T11:02:11;2.85;;;2.63;;
20399;SDS011;10359;53.596;22.520;2023-06-26T11:04:45;2.80;;;2.60;;
20399;SDS011;10359;53.596;22.520;2023-06-26T11:07:19;3.00;;;2.67;;
20399;SDS011;10359;53.596;22.520;2023-06-26T11:09:57;3.10;;;2.80;;
20399;SDS011;10359;53.596;22.520;2023-06-26T11:12:35;3.58;;;2.45;;
20399;SDS011;10359;53.596;22.520;2023-06-26T11:15:15;2.95;;;2.75;;
20399;SDS011;10359;53.596;22.520;2023-06-26T11:17:48;3.92;;;2.90;;
20399;SDS011;10359;53.596;22.520;2023-06-26T11:20:19;3.15;;;2.85;;
20399;SDS011;10359;53.596;22.520;2023-06-26T11:22:49;3.13;;;2.83;;
20399;SDS011;10359;53.596;22.520;2023-06-26T11:25:26;2.85;;;2.65;;
20399;SDS011;10359;53.596;22.520;2023-06-26T11:27:56;4.05;;;2.85;;
20399;SDS011;10359;53.596;22.520;2023-06-26T11:30:26;3.40;;;2.63;;
20399;SDS011;10359;53.596;22.520;2023-06-26T11:33:07;3.13;;;2.70;;
20399;SDS011;10359;53.596;22.520;2023-06-26T11:35:42;2.60;;;2.40;;
20399;SDS011;10359;53.596;22.520;2023-06-26T11:38:14;2.70;;;2.50;;
20399;SDS011;10359;53.596;22.520;2023-06-26T11:40:44;2.80;;;2.60;;
20399;SDS011;10359;53.596;22.520;2023-06-26T11:43:20;2.83;;;2.63;;
20399;SDS011;10359;53.596;22.520;2023-06-26T11:45:50;2.67;;;2.47;;
20399;SDS011;10359;53.596;22.520;2023-06-26T11:48:19;2.78;;;2.50;;
20399;SDS011;10359;53.596;22.520;2023-06-26T11:50:51;3.42;;;2.67;;
20399;SDS011;10359;53.596;22.520;2023-06-26T11:53:23;2.60;;;2.40;;
20399;SDS011;10359;53.596;22.520;2023-06-26T11:55:54;2.40;;;2.20;;
20399;SDS011;10359;53.596;22.520;2023-06-26T11:58:24;4.30;;;2.90;;
20399;SDS011;10359;53.596;22.520;2023-06-26T12:00:56;2.70;;;2.50;;
20399;SDS011;10359;53.596;22.520;2023-06-26T12:03:28;2.30;;;2.10;;
20399;SDS011;10359;53.596;22.520;2023-06-26T12:06:04;2.60;;;2.40;;
20399;SDS011;10359;53.596;22.520;2023-06-26T12:08:35;2.75;;;2.30;;
20399;SDS011;10359;53.596;22.520;2023-06-26T12:11:06;2.90;;;2.70;;
20399;SDS011;10359;53.596;22.520;2023-06-26T12:13:36;2.45;;;2.15;;
20399;SDS011;10359;53.596;22.520;2023-06-26T12:16:06;2.80;;;2.60;;
20399;SDS011;10359;53.596;22.520;2023-06-26T12:18:36;2.63;;;2.42;;
20399;SDS011;10359;53.596;22.520;2023-06-26T12:24:17;3.17;;;2.72;;
20399;SDS011;10359;53.596;22.520;2023-06-26T12:26:49;2.90;;;2.67;;
20399;SDS011;10359;53.596;22.520;2023-06-26T12:29:29;3.75;;;2.60;;
20399;SDS011;10359;53.596;22.520;2023-06-26T12:32:01;2.72;;;2.45;;
20399;SDS011;10359;53.596;22.520;2023-06-26T12:34:35;2.63;;;2.42;;
20399;SDS011;10359;53.596;22.520;2023-06-26T12:37:10;3.17;;;2.90;;
20399;SDS011;10359;53.596;22.520;2023-06-26T12:42:23;3.63;;;2.60;;
20399;SDS011;10359;53.596;22.520;2023-06-26T12:48:06;3.65;;;2.45;;
20399;SDS011;10359;53.596;22.520;2023-06-26T12:50:43;3.08;;;2.58;;
20399;SDS011;10359;53.596;22.520;2023-06-26T12:53:17;3.40;;;2.60;;
20399;SDS011;10359;53.596;22.520;2023-06-26T12:55:49;4.47;;;2.70;;
20399;SDS011;10359;53.596;22.520;2023-06-26T12:58:20;2.55;;;2.35;;
20399;SDS011;10359;53.596;22.520;2023-06-26T13:00:52;3.35;;;2.72;;
20399;SDS011;10359;53.596;22.520;2023-06-26T13:03:25;2.78;;;2.58;;
20399;SDS011;10359;53.596;22.520;2023-06-26T13:05:56;3.10;;;2.60;;
20399;SDS011;10359;53.596;22.520;2023-06-26T13:08:28;2.90;;;2.70;;
20399;SDS011;10359;53.596;22.520;2023-06-26T13:11:00;3.20;;;2.90;;
20399;SDS011;10359;53.596;22.520;2023-06-26T13:13:29;3.22;;;2.88;;
20399;SDS011;10359;53.596;22.520;2023-06-26T13:16:00;4.57;;;2.53;;
20399;SDS011;10359;53.596;22.520;2023-06-26T13:18:30;4.43;;;2.90;;
20399;SDS011;10359;53.596;22.520;2023-06-26T13:21:01;2.80;;;2.60;;
20399;SDS011;10359;53.596;22.520;2023-06-26T13:23:32;3.40;;;2.80;;
20399;SDS011;10359;53.596;22.520;2023-06-26T13:26:03;2.95;;;2.75;;
20399;SDS011;10359;53.596;22.520;2023-06-26T13:28:33;2.97;;;2.75;;
20399;SDS011;10359;53.596;22.520;2023-06-26T13:31:04;3.03;;;2.70;;
20399;SDS011;10359;53.596;22.520;2023-06-26T13:33:39;4.43;;;2.33;;
20399;SDS011;10359;53.596;22.520;2023-06-26T13:36:10;3.38;;;3.00;;
20399;SDS011;10359;53.596;22.520;2023-06-26T13:38:42;3.60;;;3.00;;
20399;SDS011;10359;53.596;22.520;2023-06-26T13:41:12;2.65;;;2.45;;
20399;SDS011;10359;53.596;22.520;2023-06-26T13:43:42;2.92;;;2.63;;
20399;SDS011;10359;53.596;22.520;2023-06-26T13:46:14;3.72;;;2.85;;
20399;SDS011;10359;53.596;22.520;2023-06-26T13:48:51;3.30;;;3.00;;
20399;SDS011;10359;53.596;22.520;2023-06-26T13:51:28;4.65;;;3.03;;
20399;SDS011;10359;53.596;22.520;2023-06-26T13:54:00;3.38;;;3.08;;
20399;SDS011;10359;53.596;22.520;2023-06-26T13:56:30;3.10;;;2.80;;
20399;SDS011;10359;53.596;22.520;2023-06-26T13:59:00;3.08;;;2.78;;
20399;SDS011;10359;53.596;22.520;2023-06-26T14:01:30;3.28;;;2.97;;
20399;SDS011;10359;53.596;22.520;2023-06-26T14:04:00;3.03;;;2.83;;
20399;SDS011;10359;53.596;22.520;2023-06-26T14:06:30;2.90;;;2.70;;
20399;SDS011;10359;53.596;22.520;2023-06-26T14:09:02;4.03;;;2.70;;
20399;SDS011;10359;53.596;22.520;2023-06-26T14:11:32;2.85;;;2.58;;
20399;SDS011;10359;53.596;22.520;2023-06-26T14:14:02;3.28;;;2.88;;
20399;SDS011;10359;53.596;22.520;2023-06-26T14:16:32;3.13;;;2.63;;
20399;SDS011;10359;53.596;22.520;2023-06-26T14:19:03;4.05;;;2.72;;
20399;SDS011;10359;53.596;22.520;2023-06-26T14:21:33;2.60;;;2.40;;
20399;SDS011;10359;53.596;22.520;2023-06-26T14:24:04;3.15;;;2.67;;
20399;SDS011;10359;53.596;22.520;2023-06-26T14:26:40;3.17;;;2.95;;
20399;SDS011;10359;53.596;22.520;2023-06-26T14:32:59;2.90;;;2.58;;
20399;SDS011;10359;53.596;22.520;2023-06-26T14:39:56;3.15;;;2.88;;
20399;SDS011;10359;53.596;22.520;2023-06-26T14:46:43;2.88;;;2.67;;
20399;SDS011;10359;53.596;22.520;2023-06-26T14:53:24;3.20;;;2.60;;
20399;SDS011;10359;53.596;22.520;2023-06-26T14:56:05;3.10;;;2.80;;
20399;SDS011;10359;53.596;22.520;2023-06-26T15:02:55;3.15;;;2.95;;
20399;SDS011;10359;53.596;22.520;2023-06-26T15:22:55;3.08;;;2.88;;
20399;SDS011;10359;53.596;22.520;2023-06-26T15:29:12;2.70;;;2.50;;
20399;SDS011;10359;53.596;22.520;2023-06-26T15:39:19;2.78;;;2.58;;
20399;SDS011;10359;53.596;22.520;2023-06-26T15:46:08;2.53;;;2.33;;
20399;SDS011;10359;53.596;22.520;2023-06-26T15:56:44;3.03;;;2.72;;
20399;SDS011;10359;53.596;22.520;2023-06-26T16:14:48;2.47;;;2.28;;
20399;SDS011;10359;53.596;22.520;2023-06-26T16:24:46;3.20;;;2.22;;
20399;SDS011;10359;53.596;22.520;2023-06-26T16:27:44;5.15;;;2.47;;
20399;SDS011;10359;53.596;22.520;2023-06-26T16:49:34;4.55;;;2.10;;
20399;SDS011;10359;53.596;22.520;2023-06-26T16:56:25;2.05;;;1.77;;
20399;SDS011;10359;53.596;22.520;2023-06-26T17:03:15;2.28;;;2.08;;
20399;SDS011;10359;53.596;22.520;2023-06-26T17:10:06;3.13;;;1.90;;
20399;SDS011;10359;53.596;22.520;2023-06-26T17:16:54;5.80;;;2.03;;